createdAt,value
2017-02-22T00:00:25.137Z,0
2017-02-22T00:01:06.894Z,0
2017-02-22T00:01:48.525Z,0
2017-02-22T00:02:30.229Z,0
2017-02-22T00:05:11.831Z,0
2017-02-22T00:05:53.290Z,0
2017-02-22T00:06:34.867Z,0
2017-02-22T00:07:16.697Z,0
2017-02-22T00:07:58.446Z,0
2017-02-22T00:08:40.208Z,0
2017-02-22T00:09:21.894Z,0
2017-02-22T00:10:03.493Z,0
2017-02-22T00:10:45.249Z,0
2017-02-22T00:11:26.967Z,0
2017-02-22T00:12:08.598Z,0
2017-02-22T00:12:50.332Z,0
2017-02-22T00:13:31.980Z,0
2017-02-22T00:14:13.744Z,0
2017-02-22T00:16:44.842Z,0
2017-02-22T00:17:26.480Z,0
2017-02-22T00:18:08.216Z,0
2017-02-22T00:18:49.939Z,0
2017-02-22T00:19:31.537Z,0
2017-02-22T00:20:13.058Z,0
2017-02-22T00:20:54.512Z,0
2017-02-22T00:21:35.956Z,0
2017-02-22T00:22:16.507Z,0
2017-02-22T00:22:57.726Z,0
2017-02-22T00:23:38.738Z,0
2017-02-22T00:24:19.275Z,0
2017-02-22T00:24:59.987Z,0
2017-02-22T00:25:41.303Z,0
2017-02-22T00:28:01.870Z,0
2017-02-22T00:28:43.530Z,0
2017-02-22T00:29:25.319Z,0
2017-02-22T00:30:07.048Z,0
2017-02-22T00:30:48.735Z,0
2017-02-22T00:33:04.144Z,0
2017-02-22T00:33:45.920Z,0
2017-02-22T00:34:27.552Z,0
2017-02-22T00:35:09.198Z,0
2017-02-22T00:35:50.685Z,0
2017-02-22T00:36:32.436Z,0
2017-02-22T00:37:14.113Z,0
2017-02-22T00:37:55.746Z,0
2017-02-22T00:38:37.452Z,0
2017-02-22T00:39:19.171Z,0
2017-02-22T00:40:00.912Z,0
2017-02-22T00:40:42.688Z,0
2017-02-22T00:41:24.388Z,0
2017-02-22T00:42:06.076Z,0
2017-02-22T00:42:47.915Z,0
2017-02-22T00:43:29.584Z,0
2017-02-22T00:46:11.478Z,0
2017-02-22T00:46:53.170Z,0
2017-02-22T00:47:34.886Z,0
2017-02-22T00:48:16.638Z,0
2017-02-22T00:50:47.721Z,0
2017-02-22T00:51:29.455Z,0
2017-02-22T00:52:11.266Z,0
2017-02-22T00:52:53.044Z,0
2017-02-22T00:53:34.698Z,0
2017-02-22T00:54:16.299Z,0
2017-02-22T00:56:46.968Z,0
2017-02-22T00:57:28.708Z,0
2017-02-22T00:58:10.457Z,0
2017-02-22T00:58:52.173Z,0
2017-02-22T00:59:33.888Z,0
2017-02-22T01:00:15.652Z,0
2017-02-22T01:00:57.043Z,0
2017-02-22T01:01:38.651Z,0
2017-02-22T01:02:20.319Z,0
2017-02-22T01:03:01.916Z,0
2017-02-22T01:03:43.476Z,0
2017-02-22T01:04:25.086Z,0
2017-02-22T01:05:06.596Z,0
2017-02-22T01:07:42.997Z,0
2017-02-22T01:08:24.523Z,0
2017-02-22T01:09:06.181Z,0
2017-02-22T01:09:47.646Z,0
2017-02-22T01:10:29.281Z,0
2017-02-22T01:11:11.098Z,0
2017-02-22T01:11:52.835Z,0
2017-02-22T01:12:34.513Z,0
2017-02-22T01:13:16.104Z,0
2017-02-22T01:15:47.125Z,0
2017-02-22T01:16:28.823Z,0
2017-02-22T01:17:10.406Z,0
2017-02-22T01:17:52.147Z,0
2017-02-22T01:18:33.878Z,0
2017-02-22T01:19:15.654Z,0
2017-02-22T01:19:57.460Z,0
2017-02-22T01:20:39.214Z,0
2017-02-22T01:21:20.973Z,0
2017-02-22T01:22:02.733Z,0
2017-02-22T01:22:44.456Z,0
2017-02-22T01:23:26.194Z,0
2017-02-22T01:24:07.917Z,0
2017-02-22T01:26:23.439Z,0
2017-02-22T01:27:04.898Z,0
2017-02-22T01:27:46.446Z,0
2017-02-22T01:28:28.233Z,0
2017-02-22T01:29:09.827Z,0
2017-02-22T01:29:51.575Z,0
2017-02-22T01:30:33.316Z,0
2017-02-22T01:31:14.977Z,0
2017-02-22T01:31:56.699Z,0
2017-02-22T01:32:38.354Z,0
2017-02-22T01:33:19.965Z,0
2017-02-22T01:34:01.699Z,0
2017-02-22T01:34:43.460Z,0
2017-02-22T01:35:25.086Z,0
2017-02-22T01:36:06.762Z,0
2017-02-22T01:36:48.547Z,0
2017-02-22T01:37:29.796Z,0
2017-02-22T01:38:11.418Z,0
2017-02-22T01:40:42.488Z,0
2017-02-22T01:43:03.200Z,0
2017-02-22T01:43:44.950Z,0
2017-02-22T01:46:21.238Z,0
2017-02-22T01:47:02.957Z,0
2017-02-22T01:47:44.754Z,0
2017-02-22T01:48:26.448Z,0
2017-02-22T01:49:07.914Z,0
2017-02-22T01:49:49.388Z,0
2017-02-22T01:50:30.870Z,0
2017-02-22T01:51:12.551Z,0
2017-02-22T01:51:54.011Z,0
2017-02-22T01:52:35.774Z,0
2017-02-22T01:53:17.479Z,0
2017-02-22T01:53:59.148Z,0
2017-02-22T01:54:40.691Z,0
2017-02-22T01:56:56.208Z,0
2017-02-22T01:57:37.884Z,0
2017-02-22T01:58:19.652Z,0
2017-02-22T01:59:01.241Z,0
2017-02-22T01:59:42.955Z,0
2017-02-22T02:01:58.066Z,0
2017-02-22T02:02:38.806Z,0
2017-02-22T02:03:19.345Z,0
2017-02-22T02:03:59.860Z,0
2017-02-22T02:04:40.397Z,0
2017-02-22T02:05:20.934Z,0
2017-02-22T02:06:01.469Z,0
2017-02-22T02:06:41.999Z,0
2017-02-22T02:07:22.535Z,0
2017-02-22T02:08:03.076Z,0
2017-02-22T02:08:43.606Z,0
2017-02-22T02:09:24.130Z,0
2017-02-22T02:10:04.666Z,0
2017-02-22T02:10:45.203Z,0
2017-02-22T02:11:25.747Z,0
2017-02-22T02:12:06.303Z,0
2017-02-22T02:12:46.857Z,0
2017-02-22T02:13:27.396Z,0
2017-02-22T02:14:07.931Z,0
2017-02-22T02:14:48.466Z,0
2017-02-22T02:15:29.005Z,0
2017-02-22T02:16:09.543Z,0
2017-02-22T02:16:50.085Z,0
2017-02-22T02:17:30.622Z,0
2017-02-22T02:18:11.157Z,0
2017-02-22T02:18:51.703Z,0
2017-02-22T02:19:32.244Z,0
2017-02-22T02:20:12.785Z,0
2017-02-22T02:20:53.317Z,0
2017-02-22T02:21:33.852Z,0
2017-02-22T02:22:14.388Z,0
2017-02-22T02:22:54.926Z,0
2017-02-22T02:23:35.466Z,0
2017-02-22T02:24:15.996Z,0
2017-02-22T02:24:56.531Z,0
2017-02-22T02:25:37.065Z,0
2017-02-22T02:26:17.693Z,0
2017-02-22T02:26:58.225Z,0
2017-02-22T02:27:38.748Z,0
2017-02-22T02:28:19.279Z,0
2017-02-22T02:28:59.811Z,0
2017-02-22T02:29:40.350Z,0
2017-02-22T02:30:20.884Z,0
2017-02-22T02:31:01.426Z,0
2017-02-22T02:31:41.968Z,0
2017-02-22T02:32:22.485Z,0
2017-02-22T02:33:03.020Z,0
2017-02-22T02:33:43.554Z,0
2017-02-22T02:34:24.088Z,0
2017-02-22T02:35:04.626Z,0
2017-02-22T02:35:45.166Z,0
2017-02-22T02:36:25.696Z,0
2017-02-22T02:37:06.227Z,0
2017-02-22T02:37:46.766Z,0
2017-02-22T02:38:27.303Z,0
2017-02-22T02:39:07.837Z,0
2017-02-22T02:39:48.372Z,0
2017-02-22T02:40:28.899Z,0
2017-02-22T02:41:09.430Z,0
2017-02-22T02:41:49.964Z,0
2017-02-22T02:42:30.503Z,0
2017-02-22T02:43:11.040Z,0
2017-02-22T02:43:51.581Z,0
2017-02-22T02:44:32.118Z,0
2017-02-22T02:45:12.646Z,0
2017-02-22T02:45:53.182Z,0
2017-02-22T02:46:33.712Z,0
2017-02-22T02:47:14.247Z,0
2017-02-22T02:47:54.790Z,0
2017-02-22T02:48:35.338Z,0
2017-02-22T02:49:15.854Z,0
2017-02-22T02:49:56.390Z,0
2017-02-22T02:50:36.925Z,0
2017-02-22T02:51:17.461Z,0
2017-02-22T02:51:57.999Z,0
2017-02-22T02:52:38.529Z,0
2017-02-22T02:53:19.057Z,0
2017-02-22T02:53:59.592Z,0
2017-02-22T02:54:40.120Z,0
2017-02-22T02:55:20.666Z,0
2017-02-22T02:56:01.199Z,0
2017-02-22T02:56:41.736Z,0
2017-02-22T02:57:22.267Z,0
2017-02-22T02:58:02.801Z,0
2017-02-22T02:58:43.340Z,0
2017-02-22T02:59:23.875Z,0
2017-02-22T03:00:04.428Z,0
2017-02-22T03:00:44.970Z,0
2017-02-22T03:01:25.508Z,0
2017-02-22T03:02:06.049Z,0
2017-02-22T03:02:46.589Z,0
2017-02-22T03:03:27.125Z,0
2017-02-22T03:04:07.661Z,0
2017-02-22T03:04:48.194Z,0
2017-02-22T03:05:28.732Z,0
2017-02-22T03:06:09.274Z,0
2017-02-22T03:06:49.812Z,0
2017-02-22T03:07:30.351Z,0
2017-02-22T03:08:10.893Z,0
2017-02-22T03:08:51.430Z,0
2017-02-22T03:09:31.961Z,0
2017-02-22T03:10:12.499Z,0
2017-02-22T03:10:53.035Z,0
2017-02-22T03:11:33.569Z,0
2017-02-22T03:12:14.109Z,0
2017-02-22T03:12:54.656Z,0
2017-02-22T03:13:35.182Z,0
2017-02-22T03:14:15.714Z,0
2017-02-22T03:14:56.245Z,0
2017-02-22T03:15:36.774Z,0
2017-02-22T03:16:17.299Z,0
2017-02-22T03:16:57.835Z,0
2017-02-22T03:17:38.366Z,0
2017-02-22T03:18:18.895Z,0
2017-02-22T03:18:59.433Z,0
2017-02-22T03:19:39.971Z,0
2017-02-22T03:20:20.503Z,0
2017-02-22T03:21:01.029Z,0
2017-02-22T03:21:41.565Z,0
2017-02-22T03:22:22.100Z,0
2017-02-22T03:23:02.635Z,0
2017-02-22T03:23:43.174Z,0
2017-02-22T03:24:23.714Z,0
2017-02-22T03:25:04.263Z,0
2017-02-22T03:25:44.806Z,0
2017-02-22T03:26:25.344Z,0
2017-02-22T03:27:05.882Z,0
2017-02-22T03:27:46.421Z,0
2017-02-22T03:28:26.951Z,0
2017-02-22T03:29:07.493Z,0
2017-02-22T03:29:48.024Z,0
2017-02-22T03:30:28.557Z,0
2017-02-22T03:31:09.087Z,0
2017-02-22T03:31:49.623Z,0
2017-02-22T03:32:30.156Z,0
2017-02-22T03:33:10.691Z,0
2017-02-22T03:33:51.230Z,0
2017-02-22T03:34:31.817Z,0
2017-02-22T03:35:12.344Z,0
2017-02-22T03:35:52.879Z,0
2017-02-22T03:36:33.418Z,0
2017-02-22T03:37:13.943Z,0
2017-02-22T03:37:54.479Z,0
2017-02-22T03:38:35.014Z,0
2017-02-22T03:39:15.541Z,0
2017-02-22T03:39:56.084Z,0
2017-02-22T03:40:36.621Z,0
2017-02-22T03:41:17.159Z,0
2017-02-22T03:41:57.699Z,0
2017-02-22T03:42:38.235Z,0
2017-02-22T03:43:18.767Z,0
2017-02-22T03:43:59.314Z,0
2017-02-22T03:44:39.853Z,0
2017-02-22T03:45:20.390Z,0
2017-02-22T03:46:00.924Z,0
2017-02-22T03:46:41.473Z,0
2017-02-22T03:47:22.001Z,0
2017-02-22T03:48:02.534Z,0
2017-02-22T03:48:57.954Z,0
2017-02-22T03:49:38.494Z,0
2017-02-22T03:50:19.026Z,0
2017-02-22T03:50:59.562Z,0
2017-02-22T03:51:40.098Z,0
2017-02-22T03:52:20.633Z,0
2017-02-22T03:53:01.167Z,0
2017-02-22T03:53:41.702Z,0
2017-02-22T03:54:22.234Z,0
2017-02-22T03:55:02.768Z,0
2017-02-22T03:55:43.306Z,0
2017-02-22T03:56:23.829Z,0
2017-02-22T03:57:04.363Z,0
2017-02-22T03:57:44.897Z,0
2017-02-22T03:58:25.434Z,0
2017-02-22T03:59:05.970Z,0
2017-02-22T03:59:46.502Z,0
2017-02-22T04:00:27.046Z,0
2017-02-22T04:01:07.574Z,0
2017-02-22T04:01:48.102Z,0
2017-02-22T04:02:28.639Z,0
2017-02-22T04:03:09.168Z,0
2017-02-22T04:03:49.703Z,0
2017-02-22T04:04:30.239Z,0
2017-02-22T04:05:10.775Z,0
2017-02-22T04:05:51.302Z,0
2017-02-22T04:06:31.833Z,0
2017-02-22T04:07:12.366Z,0
2017-02-22T04:07:52.900Z,0
2017-02-22T04:08:33.438Z,0
2017-02-22T04:09:13.960Z,0
2017-02-22T04:09:54.505Z,0
2017-02-22T04:10:35.040Z,0
2017-02-22T04:11:15.577Z,0
2017-02-22T04:11:56.119Z,0
2017-02-22T04:12:36.659Z,0
2017-02-22T04:13:17.201Z,0
2017-02-22T04:13:57.736Z,0
2017-02-22T04:14:38.271Z,0
2017-02-22T04:15:18.804Z,0
2017-02-22T04:15:59.339Z,0
2017-02-22T04:16:39.868Z,0
2017-02-22T04:17:20.402Z,0
2017-02-22T04:18:00.940Z,0
2017-02-22T04:18:41.474Z,0
2017-02-22T04:19:22.009Z,0
2017-02-22T04:20:02.545Z,0
2017-02-22T04:20:43.083Z,0
2017-02-22T04:21:23.618Z,0
2017-02-22T04:22:04.157Z,0
2017-02-22T04:22:44.697Z,0
2017-02-22T04:23:25.232Z,0
2017-02-22T04:24:05.771Z,0
2017-02-22T04:24:46.307Z,0
2017-02-22T04:25:26.845Z,0
2017-02-22T04:26:07.375Z,0
2017-02-22T04:26:47.919Z,0
2017-02-22T04:27:28.451Z,0
2017-02-22T04:28:08.980Z,0
2017-02-22T04:28:49.512Z,0
2017-02-22T04:29:30.048Z,0
2017-02-22T04:30:10.588Z,0
2017-02-22T04:30:51.122Z,0
2017-02-22T04:31:31.660Z,0
2017-02-22T04:32:12.187Z,0
2017-02-22T04:32:52.713Z,0
2017-02-22T04:33:33.242Z,0
2017-02-22T04:34:13.777Z,0
2017-02-22T04:34:54.324Z,0
2017-02-22T04:35:34.857Z,0
2017-02-22T04:36:15.384Z,0
2017-02-22T04:36:55.917Z,0
2017-02-22T04:37:36.454Z,0
2017-02-22T04:38:17.038Z,0
2017-02-22T04:38:57.569Z,0
2017-02-22T04:39:38.104Z,0
2017-02-22T04:40:18.649Z,0
2017-02-22T04:40:59.182Z,0
2017-02-22T04:41:39.719Z,0
2017-02-22T04:42:20.241Z,0
2017-02-22T04:43:00.778Z,0
2017-02-22T04:43:41.311Z,0
2017-02-22T04:44:21.839Z,0
2017-02-22T04:45:02.384Z,0
2017-02-22T04:45:42.919Z,0
2017-02-22T04:46:23.474Z,0
2017-02-22T04:47:03.997Z,0
2017-02-22T04:47:44.535Z,0
2017-02-22T04:48:25.072Z,0
2017-02-22T04:49:05.605Z,0
2017-02-22T04:49:46.154Z,0
2017-02-22T04:50:26.691Z,0
2017-02-22T04:51:07.230Z,0
2017-02-22T04:51:47.771Z,0
2017-02-22T04:52:28.292Z,0
2017-02-22T04:53:08.807Z,0
2017-02-22T04:53:49.355Z,0
2017-02-22T04:54:29.890Z,0
2017-02-22T04:55:10.423Z,0
2017-02-22T04:55:50.950Z,0
2017-02-22T04:56:31.509Z,0
2017-02-22T04:57:12.034Z,0
2017-02-22T04:57:52.574Z,0
2017-02-22T04:58:33.108Z,0
2017-02-22T04:59:13.645Z,0
2017-02-22T04:59:54.183Z,0
2017-02-22T05:00:34.733Z,0
2017-02-22T05:01:15.279Z,0
2017-02-22T05:01:55.828Z,0
2017-02-22T05:02:36.368Z,0
2017-02-22T05:03:16.896Z,0
2017-02-22T05:03:57.430Z,0
2017-02-22T05:04:37.983Z,0
2017-02-22T05:05:18.503Z,0
2017-02-22T05:05:59.044Z,0
2017-02-22T05:06:39.582Z,0
2017-02-22T05:07:20.230Z,0
2017-02-22T05:08:00.786Z,0
2017-02-22T05:08:41.307Z,0
2017-02-22T05:09:21.849Z,0
2017-02-22T05:10:02.368Z,0
2017-02-22T05:10:42.915Z,0
2017-02-22T05:11:23.457Z,0
2017-02-22T05:12:03.978Z,0
2017-02-22T05:12:44.519Z,0
2017-02-22T05:13:25.059Z,0
2017-02-22T05:14:05.601Z,0
2017-02-22T05:14:46.138Z,0
2017-02-22T05:15:26.665Z,0
2017-02-22T05:16:07.218Z,0
2017-02-22T05:16:47.752Z,0
2017-02-22T05:17:28.296Z,0
2017-02-22T05:18:08.867Z,0
2017-02-22T05:18:49.404Z,0
2017-02-22T05:19:29.945Z,0
2017-02-22T05:20:10.468Z,0
2017-02-22T05:20:51.006Z,0
2017-02-22T05:21:31.542Z,0
2017-02-22T05:22:12.077Z,0
2017-02-22T05:22:52.620Z,0
2017-02-22T05:23:33.160Z,0
2017-02-22T05:24:13.710Z,0
2017-02-22T05:24:54.251Z,0
2017-02-22T05:25:34.780Z,0
2017-02-22T05:26:15.314Z,0
2017-02-22T05:26:55.852Z,0
2017-02-22T05:27:36.384Z,0
2017-02-22T05:28:16.922Z,0
2017-02-22T05:28:57.479Z,0
2017-02-22T05:29:38.004Z,0
2017-02-22T05:30:18.534Z,0
2017-02-22T05:30:59.067Z,0
2017-02-22T05:31:39.609Z,0
2017-02-22T05:32:20.134Z,0
2017-02-22T05:33:00.678Z,0
2017-02-22T05:33:41.208Z,0
2017-02-22T05:34:21.749Z,0
2017-02-22T05:35:02.348Z,0
2017-02-22T05:35:42.919Z,0
2017-02-22T05:36:23.505Z,0
2017-02-22T05:37:04.035Z,0
2017-02-22T05:37:44.572Z,0
2017-02-22T05:38:25.111Z,0
2017-02-22T05:39:05.641Z,0
2017-02-22T05:39:46.192Z,0
2017-02-22T05:40:26.731Z,0
2017-02-22T05:41:07.272Z,0
2017-02-22T05:41:47.833Z,0
2017-02-22T05:42:28.383Z,0
2017-02-22T05:43:08.890Z,0
2017-02-22T05:43:49.428Z,0
2017-02-22T05:44:29.999Z,0
2017-02-22T05:45:10.527Z,0
2017-02-22T05:45:51.072Z,0
2017-02-22T05:46:31.625Z,0
2017-02-22T05:47:12.162Z,0
2017-02-22T05:47:52.705Z,0
2017-02-22T05:48:33.240Z,0
2017-02-22T05:49:13.775Z,0
2017-02-22T05:49:54.316Z,0
2017-02-22T05:50:34.844Z,0
2017-02-22T05:51:15.354Z,0
2017-02-22T05:51:55.899Z,0
2017-02-22T05:52:36.431Z,0
2017-02-22T05:53:16.979Z,0
2017-02-22T05:53:57.511Z,0
2017-02-22T05:54:38.045Z,0
2017-02-22T05:55:18.586Z,0
2017-02-22T05:55:59.121Z,0
2017-02-22T05:56:39.662Z,0
2017-02-22T05:57:20.189Z,0
2017-02-22T05:58:00.732Z,0
2017-02-22T05:58:41.265Z,0
2017-02-22T05:59:21.799Z,0
2017-02-22T06:00:02.325Z,0
2017-02-22T06:00:42.870Z,0
2017-02-22T06:01:23.405Z,0
2017-02-22T06:02:03.945Z,0
2017-02-22T06:02:44.503Z,0
2017-02-22T06:03:25.014Z,0
2017-02-22T06:04:05.544Z,0
2017-02-22T06:04:46.082Z,0
2017-02-22T06:05:26.621Z,0
2017-02-22T06:06:07.159Z,0
2017-02-22T06:06:47.727Z,0
2017-02-22T06:07:28.261Z,0
2017-02-22T06:08:08.800Z,0
2017-02-22T06:08:49.318Z,0
2017-02-22T06:09:29.854Z,0
2017-02-22T06:10:10.389Z,0
2017-02-22T06:10:50.925Z,0
2017-02-22T06:11:31.463Z,0
2017-02-22T06:12:11.992Z,0
2017-02-22T06:12:52.528Z,0
2017-02-22T06:13:33.064Z,0
2017-02-22T06:14:13.604Z,0
2017-02-22T06:14:54.143Z,0
2017-02-22T06:15:34.670Z,0
2017-02-22T06:16:15.211Z,0
2017-02-22T06:16:55.793Z,0
2017-02-22T06:17:36.319Z,0
2017-02-22T06:18:16.868Z,0
2017-02-22T06:18:57.405Z,0
2017-02-22T06:19:37.966Z,0
2017-02-22T06:20:18.491Z,0
2017-02-22T06:20:59.029Z,0
2017-02-22T06:21:39.566Z,0
2017-02-22T06:22:20.109Z,0
2017-02-22T06:23:00.645Z,0
2017-02-22T06:23:41.190Z,0
2017-02-22T06:24:21.726Z,0
2017-02-22T06:25:02.270Z,0
2017-02-22T06:25:42.807Z,0
2017-02-22T06:26:23.332Z,0
2017-02-22T06:27:03.866Z,0
2017-02-22T06:27:44.401Z,0
2017-02-22T06:28:24.943Z,0
2017-02-22T06:29:05.479Z,0
2017-02-22T06:29:46.040Z,0
2017-02-22T06:30:26.577Z,0
2017-02-22T06:31:07.124Z,0
2017-02-22T06:31:47.662Z,0
2017-02-22T06:32:28.215Z,0
2017-02-22T06:33:08.729Z,0
2017-02-22T06:33:49.271Z,0
2017-02-22T06:34:29.802Z,0
2017-02-22T06:35:10.354Z,0
2017-02-22T06:35:50.894Z,0
2017-02-22T06:36:31.438Z,0
2017-02-22T06:37:11.982Z,0
2017-02-22T06:37:52.537Z,0
2017-02-22T06:38:33.068Z,0
2017-02-22T06:39:13.596Z,0
2017-02-22T06:39:54.126Z,0
2017-02-22T06:40:34.665Z,0
2017-02-22T06:41:15.214Z,0
2017-02-22T06:41:55.757Z,0
2017-02-22T06:42:36.293Z,0
2017-02-22T06:43:16.856Z,0
2017-02-22T06:43:57.394Z,0
2017-02-22T06:44:37.933Z,0
2017-02-22T06:45:18.477Z,0
2017-02-22T06:45:59.011Z,0
2017-02-22T06:46:39.541Z,0
2017-02-22T06:47:20.072Z,0
2017-02-22T06:48:00.597Z,0
2017-02-22T06:48:41.135Z,0
2017-02-22T06:49:21.678Z,0
2017-02-22T06:50:02.211Z,0
2017-02-22T06:50:42.745Z,0
2017-02-22T06:51:24.323Z,0
2017-02-22T06:52:04.923Z,0
2017-02-22T06:52:45.457Z,5
2017-02-22T06:53:26.003Z,5
2017-02-22T06:54:06.533Z,5
2017-02-22T06:54:47.083Z,5
2017-02-22T06:55:27.617Z,5
2017-02-22T06:56:08.150Z,5
2017-02-22T06:56:48.690Z,5
2017-02-22T06:57:29.235Z,5
2017-02-22T06:58:09.774Z,5
2017-02-22T06:58:50.311Z,5
2017-02-22T06:59:30.838Z,5
2017-02-22T07:00:11.378Z,5
2017-02-22T07:00:51.915Z,5
2017-02-22T07:01:32.459Z,5
2017-02-22T07:02:12.992Z,5
2017-02-22T07:02:53.529Z,5
2017-02-22T07:03:34.067Z,5
2017-02-22T07:04:14.602Z,5
2017-02-22T07:04:55.135Z,5
2017-02-22T07:05:35.673Z,5
2017-02-22T07:06:16.213Z,5
2017-02-22T07:06:56.754Z,5
2017-02-22T07:07:37.300Z,5
2017-02-22T07:08:17.832Z,5
2017-02-22T07:08:58.369Z,5
2017-02-22T07:09:38.909Z,5
2017-02-22T07:10:19.433Z,5
2017-02-22T07:10:59.968Z,5
2017-02-22T07:11:40.492Z,5
2017-02-22T07:12:21.025Z,10
2017-02-22T07:13:01.570Z,10
2017-02-22T07:13:42.101Z,10
2017-02-22T07:14:22.633Z,10
2017-02-22T07:15:03.186Z,10
2017-02-22T07:15:43.712Z,10
2017-02-22T07:16:24.264Z,10
2017-02-22T07:17:04.821Z,10
2017-02-22T07:17:45.367Z,10
2017-02-22T07:18:25.907Z,10
2017-02-22T07:19:06.455Z,10
2017-02-22T07:19:46.985Z,15
2017-02-22T07:20:27.527Z,15
2017-02-22T07:21:08.059Z,15
2017-02-22T07:21:48.594Z,15
2017-02-22T07:22:29.130Z,15
2017-02-22T07:23:09.673Z,15
2017-02-22T07:23:50.217Z,15
2017-02-22T07:24:30.759Z,15
2017-02-22T07:25:11.292Z,15
2017-02-22T07:25:51.831Z,15
2017-02-22T07:26:32.354Z,15
2017-02-22T07:27:12.889Z,15
2017-02-22T07:27:53.422Z,15
2017-02-22T07:28:33.956Z,15
2017-02-22T07:29:14.493Z,15
2017-02-22T07:29:55.018Z,15
2017-02-22T07:30:35.541Z,15
2017-02-22T07:31:16.086Z,15
2017-02-22T07:31:56.614Z,15
2017-02-22T07:32:37.209Z,15
2017-02-22T07:33:17.733Z,15
2017-02-22T07:33:58.278Z,15
2017-02-22T07:34:38.817Z,15
2017-02-22T07:35:19.361Z,15
2017-02-22T07:35:59.900Z,15
2017-02-22T07:36:40.449Z,15
2017-02-22T07:37:20.972Z,15
2017-02-22T07:38:01.545Z,15
2017-02-22T07:38:42.071Z,15
2017-02-22T07:39:22.624Z,15
2017-02-22T07:40:03.141Z,15
2017-02-22T07:40:43.683Z,20
2017-02-22T07:41:24.218Z,20
2017-02-22T07:42:04.757Z,20
2017-02-22T07:42:45.299Z,20
2017-02-22T07:43:25.820Z,20
2017-02-22T07:44:06.353Z,20
2017-02-22T07:44:46.884Z,25
2017-02-22T07:45:27.426Z,25
2017-02-22T07:46:07.964Z,25
2017-02-22T07:46:48.502Z,30
2017-02-22T07:47:29.031Z,30
2017-02-22T07:48:09.565Z,30
2017-02-22T07:48:50.100Z,30
2017-02-22T07:49:30.637Z,30
2017-02-22T07:50:11.172Z,25
2017-02-22T07:50:51.712Z,25
2017-02-22T07:51:32.254Z,30
2017-02-22T07:52:12.765Z,25
2017-02-22T07:52:53.279Z,25
2017-02-22T07:53:33.825Z,25
2017-02-22T07:54:14.363Z,25
2017-02-22T07:54:54.906Z,25
2017-02-22T07:55:35.427Z,25
2017-02-22T07:56:15.965Z,25
2017-02-22T07:56:56.501Z,25
2017-02-22T07:57:37.033Z,25
2017-02-22T07:58:17.561Z,30
2017-02-22T07:58:58.094Z,30
2017-02-22T07:59:38.627Z,30
2017-02-22T08:00:19.164Z,35
2017-02-22T08:00:59.739Z,40
2017-02-22T08:01:40.272Z,40
2017-02-22T08:02:20.801Z,35
2017-02-22T08:03:01.335Z,35
2017-02-22T08:03:41.870Z,35
2017-02-22T08:04:22.413Z,40
2017-02-22T08:05:02.945Z,40
2017-02-22T08:05:43.476Z,35
2017-02-22T08:06:24.010Z,35
2017-02-22T08:07:04.550Z,35
2017-02-22T08:07:45.082Z,35
2017-02-22T08:08:25.630Z,30
2017-02-22T08:09:06.165Z,30
2017-02-22T08:09:46.700Z,30
2017-02-22T08:10:27.232Z,30
2017-02-22T08:11:07.767Z,30
2017-02-22T08:11:48.302Z,30
2017-02-22T08:12:28.838Z,30
2017-02-22T08:13:09.372Z,30
2017-02-22T08:13:49.909Z,35
2017-02-22T08:14:30.450Z,30
2017-02-22T08:15:10.986Z,30
2017-02-22T08:15:51.520Z,30
2017-02-22T08:16:32.058Z,30
2017-02-22T08:17:12.594Z,25
2017-02-22T08:17:53.125Z,25
2017-02-22T08:18:33.658Z,25
2017-02-22T08:19:14.193Z,25
2017-02-22T08:19:54.720Z,25
2017-02-22T08:20:35.257Z,25
2017-02-22T08:21:15.794Z,25
2017-02-22T08:21:56.334Z,30
2017-02-22T08:22:36.864Z,30
2017-02-22T08:23:17.396Z,30
2017-02-22T08:23:57.935Z,30
2017-02-22T08:24:38.469Z,35
2017-02-22T08:25:19.012Z,30
2017-02-22T08:25:59.548Z,35
2017-02-22T08:26:40.088Z,30
2017-02-22T08:27:20.631Z,30
2017-02-22T08:28:01.166Z,30
2017-02-22T08:28:41.699Z,30
2017-02-22T08:29:22.230Z,30
2017-02-22T08:30:02.766Z,30
2017-02-22T08:30:43.305Z,30
2017-02-22T08:31:23.849Z,30
2017-02-22T08:32:04.385Z,30
2017-02-22T08:32:44.919Z,30
2017-02-22T08:33:25.447Z,30
2017-02-22T08:34:05.980Z,30
2017-02-22T08:34:46.516Z,30
2017-02-22T08:35:27.057Z,30
2017-02-22T08:36:07.591Z,30
2017-02-22T08:36:48.144Z,30
2017-02-22T08:37:28.669Z,30
2017-02-22T08:38:09.202Z,35
2017-02-22T08:38:49.739Z,35
2017-02-22T08:39:30.275Z,35
2017-02-22T08:40:10.811Z,35
2017-02-22T08:40:51.342Z,35
2017-02-22T08:41:31.877Z,35
2017-02-22T08:42:12.412Z,35
2017-02-22T08:42:52.942Z,35
2017-02-22T08:43:33.477Z,35
2017-02-22T08:44:14.015Z,40
2017-02-22T08:44:54.553Z,40
2017-02-22T08:45:35.097Z,45
2017-02-22T08:46:15.630Z,50
2017-02-22T08:46:56.164Z,50
2017-02-22T08:47:36.703Z,55
2017-02-22T08:48:17.226Z,55
2017-02-22T08:48:57.781Z,65
2017-02-22T08:49:38.319Z,60
2017-02-22T08:50:18.860Z,55
2017-02-22T08:50:59.428Z,55
2017-02-22T08:51:39.972Z,55
2017-02-22T08:52:20.510Z,55
2017-02-22T08:53:01.045Z,55
2017-02-22T08:53:41.571Z,55
2017-02-22T08:54:22.101Z,60
2017-02-22T08:55:02.676Z,55
2017-02-22T08:55:43.210Z,55
2017-02-22T08:56:23.749Z,60
2017-02-22T08:57:04.289Z,55
2017-02-22T08:57:44.826Z,55
2017-02-22T08:58:25.357Z,55
2017-02-22T08:59:05.892Z,55
2017-02-22T08:59:46.425Z,60
2017-02-22T09:00:26.958Z,55
2017-02-22T09:01:07.495Z,55
2017-02-22T09:01:48.031Z,55
2017-02-22T09:02:28.566Z,55
2017-02-22T09:03:09.110Z,55
2017-02-22T09:03:49.640Z,50
2017-02-22T09:04:30.176Z,55
2017-02-22T09:05:10.767Z,50
2017-02-22T09:05:51.315Z,50
2017-02-22T09:06:31.849Z,55
2017-02-22T09:07:12.374Z,55
2017-02-22T09:07:52.912Z,60
2017-02-22T09:08:33.451Z,60
2017-02-22T09:09:13.986Z,65
2017-02-22T09:09:54.533Z,60
2017-02-22T09:10:35.069Z,65
2017-02-22T09:11:15.608Z,70
2017-02-22T09:11:56.147Z,75
2017-02-22T09:12:36.681Z,75
2017-02-22T09:13:17.216Z,75
2017-02-22T09:13:57.754Z,65
2017-02-22T09:14:38.290Z,65
2017-02-22T09:15:18.823Z,65
2017-02-22T09:15:59.361Z,65
2017-02-22T09:16:39.894Z,65
2017-02-22T09:17:20.430Z,70
2017-02-22T09:18:00.964Z,65
2017-02-22T09:18:41.508Z,70
2017-02-22T09:19:22.083Z,70
2017-02-22T09:20:02.618Z,70
2017-02-22T09:20:43.164Z,65
2017-02-22T09:21:23.694Z,75
2017-02-22T09:22:04.241Z,75
2017-02-22T09:22:44.782Z,80
2017-02-22T09:23:25.308Z,85
2017-02-22T09:24:05.839Z,95
2017-02-22T09:24:46.371Z,95
2017-02-22T09:25:26.902Z,90
2017-02-22T09:26:07.440Z,100
2017-02-22T09:26:47.987Z,95
2017-02-22T09:27:28.518Z,95
2017-02-22T09:28:09.049Z,90
2017-02-22T09:28:49.584Z,90
2017-02-22T09:29:30.117Z,90
2017-02-22T09:30:10.652Z,85
2017-02-22T09:30:51.188Z,80
2017-02-22T09:31:31.734Z,80
2017-02-22T09:32:12.263Z,70
2017-02-22T09:32:52.802Z,70
2017-02-22T09:33:33.322Z,75
2017-02-22T09:34:13.893Z,70
2017-02-22T09:34:54.427Z,70
2017-02-22T09:35:34.964Z,65
2017-02-22T09:36:15.502Z,70
2017-02-22T09:36:56.047Z,75
2017-02-22T09:37:36.579Z,70
2017-02-22T09:38:17.109Z,75
2017-02-22T09:38:57.641Z,85
2017-02-22T09:39:38.181Z,85
2017-02-22T09:40:18.716Z,70
2017-02-22T09:40:59.251Z,75
2017-02-22T09:41:39.796Z,75
2017-02-22T09:42:20.331Z,75
2017-02-22T09:43:00.862Z,80
2017-02-22T09:43:41.392Z,70
2017-02-22T09:44:21.928Z,65
2017-02-22T09:45:02.467Z,65
2017-02-22T09:45:43.007Z,60
2017-02-22T09:46:23.547Z,70
2017-02-22T09:47:04.084Z,80
2017-02-22T09:47:44.620Z,80
2017-02-22T09:48:25.159Z,90
2017-02-22T09:49:05.690Z,90
2017-02-22T09:49:46.224Z,85
2017-02-22T09:50:26.757Z,85
2017-02-22T09:51:07.279Z,85
2017-02-22T09:51:47.816Z,90
2017-02-22T09:52:28.348Z,90
2017-02-22T09:53:08.884Z,85
2017-02-22T09:53:49.423Z,80
2017-02-22T09:54:29.953Z,80
2017-02-22T09:55:10.492Z,80
2017-02-22T09:55:51.031Z,75
2017-02-22T09:56:31.567Z,70
2017-02-22T09:57:12.111Z,80
2017-02-22T09:57:52.643Z,80
2017-02-22T09:58:33.190Z,75
2017-02-22T09:59:13.728Z,65
2017-02-22T09:59:54.266Z,65
2017-02-22T10:00:34.808Z,60
2017-02-22T10:01:15.327Z,60
2017-02-22T10:01:55.865Z,60
2017-02-22T10:02:36.403Z,65
2017-02-22T10:03:16.943Z,60
2017-02-22T10:03:57.481Z,60
2017-02-22T10:04:38.020Z,65
2017-02-22T10:05:18.562Z,60
2017-02-22T10:05:59.095Z,55
2017-02-22T10:06:39.627Z,65
2017-02-22T10:07:20.176Z,60
2017-02-22T10:08:00.713Z,60
2017-02-22T10:08:41.251Z,55
2017-02-22T10:09:21.786Z,55
2017-02-22T10:10:02.326Z,55
2017-02-22T10:10:42.859Z,50
2017-02-22T10:11:23.398Z,55
2017-02-22T10:12:03.938Z,60
2017-02-22T10:12:44.473Z,60
2017-02-22T10:13:25.007Z,60
2017-02-22T10:14:05.541Z,55
2017-02-22T10:14:46.079Z,60
2017-02-22T10:15:26.618Z,60
2017-02-22T10:16:07.148Z,60
2017-02-22T10:16:47.683Z,65
2017-02-22T10:17:28.217Z,60
2017-02-22T10:18:08.756Z,60
2017-02-22T10:18:49.291Z,60
2017-02-22T10:19:29.830Z,55
2017-02-22T10:20:10.367Z,55
2017-02-22T10:20:50.903Z,50
2017-02-22T10:21:31.436Z,50